Time;durP1;ratioP1;P1;durP2;ratioP2;P2;SDS_P1;SDS_P2;PMS_P1;PMS_P2;Temp;Humidity;BMP_temperature;BMP_pressure;BME280_temperature;BME280_humidity;BME280_pressure;Samples;Min_cycle;Max_cycle;Signal;HPM_P1;HPM_P2
2021/09/03 00:00:20;;;;;;;28.10;17.23;;;18.50;99.90;;;18.87;68.82;102355.25;5114435;28;20036;-72
2021/09/03 00:02:49;;;;;;;25.63;17.45;;;18.50;99.90;;;18.73;69.05;102341.13;5114815;28;20438;-71
2021/09/03 00:05:20;;;;;;;25.85;16.90;;;18.50;99.90;;;18.83;69.00;102345.47;5114821;28;20089;-71
2021/09/03 00:07:49;;;;;;;23.98;15.82;;;18.50;99.90;;;18.88;68.97;102349.84;5114903;28;20040;-71
2021/09/03 00:10:21;;;;;;;26.38;17.13;;;18.40;99.90;;;18.74;69.10;102335.75;5096535;28;20069;-71
2021/09/03 00:12:50;;;;;;;22.58;15.85;;;18.40;99.90;;;18.85;69.00;102344.50;5114339;28;20050;-71
2021/09/03 00:15:18;;;;;;;25.63;16.50;;;18.40;99.90;;;18.88;68.86;102336.44;5114307;28;20038;-71
2021/09/03 00:17:47;;;;;;;24.23;15.73;;;18.50;99.90;;;18.86;68.88;102332.91;5114284;28;20112;-71
2021/09/03 00:20:16;;;;;;;30.13;17.13;;;18.50;99.90;;;18.75;68.99;102331.28;5114338;28;20043;-72
2021/09/03 00:22:45;;;;;;;24.25;15.75;;;18.40;99.90;;;18.83;68.86;102338.28;5114245;28;20048;-71
2021/09/03 00:25:14;;;;;;;25.45;15.95;;;18.40;99.90;;;18.79;68.91;102331.19;5114138;28;20100;-72
2021/09/03 00:27:44;;;;;;;24.02;17.38;;;18.40;99.90;;;18.79;68.88;102327.66;5114305;28;20040;-71
2021/09/03 00:30:14;;;;;;;22.67;15.52;;;18.40;99.90;;;18.76;68.99;102339.28;5114165;28;20104;-71
2021/09/03 00:32:42;;;;;;;25.55;16.13;;;18.40;99.90;;;18.77;69.14;102332.16;5114329;28;20506;-71
2021/09/03 00:35:12;;;;;;;26.63;16.45;;;18.40;99.90;;;18.72;69.18;102333.97;5114621;28;20407;-71
2021/09/03 00:37:40;;;;;;;22.58;15.55;;;18.40;99.90;;;18.48;68.96;102284.31;5114328;28;20090;-71
2021/09/03 00:40:10;;;;;;;25.27;16.27;;;18.40;99.90;;;18.71;69.11;102327.75;5114717;28;20066;-71
2021/09/03 00:42:39;;;;;;;23.58;15.95;;;18.30;99.90;;;18.69;69.10;102316.19;5114386;28;20134;-72
2021/09/03 00:45:10;;;;;;;24.63;16.20;;;18.30;99.90;;;18.65;69.05;102309.09;5113838;28;20122;-71
2021/09/03 00:47:39;;;;;;;25.77;15.90;;;18.30;99.90;;;18.69;69.16;102310.81;5113652;28;20047;-71
2021/09/03 00:50:09;;;;;;;26.08;16.38;;;18.30;99.90;;;18.68;69.19;102319.75;5113616;28;20032;-71
2021/09/03 00:52:39;;;;;;;25.85;16.85;;;18.30;99.90;;;18.64;69.25;102309.97;5113941;28;20047;-71
2021/09/03 00:55:08;;;;;;;28.15;16.30;;;18.30;99.90;;;18.46;69.52;102278.09;5113911;28;20039;-71
2021/09/03 00:57:38;;;;;;;24.55;16.20;;;18.30;99.90;;;18.62;69.49;102309.09;5113892;28;20126;-71
2021/09/03 01:00:09;;;;;;;29.85;17.02;;;18.30;99.90;;;18.63;69.40;102305.53;5113428;28;20356;-72
2021/09/03 01:02:38;;;;;;;23.08;15.60;;;18.20;99.90;;;18.61;69.63;102296.63;5113961;28;20047;-71
2021/09/03 01:05:09;;;;;;;25.20;16.25;;;18.20;99.90;;;18.56;69.56;102287.75;5113545;28;20384;-71
2021/09/03 01:07:37;;;;;;;26.17;16.30;;;18.20;99.90;;;18.53;69.78;102298.53;5113599;28;20104;-71
2021/09/03 01:10:07;;;;;;;26.30;17.00;;;18.20;99.90;;;18.53;69.87;102300.31;5113245;28;20435;-71
2021/09/03 01:12:36;;;;;;;29.15;17.35;;;18.10;99.90;;;18.49;70.00;102299.47;5113158;28;20048;-71
2021/09/03 01:15:06;;;;;;;27.63;16.98;;;18.10;99.90;;;18.46;70.19;102295.97;5095067;28;20085;-72
2021/09/03 01:17:37;;;;;;;26.38;16.33;;;18.10;99.90;;;18.40;70.27;102287.97;5113341;28;20172;-71
2021/09/03 01:20:07;;;;;;;26.17;17.02;;;18.10;99.90;;;18.42;70.53;102283.47;5113326;28;20123;-71
2021/09/03 01:22:37;;;;;;;22.67;16.27;;;18.00;99.90;;;18.46;70.41;102293.28;5112985;28;20051;-72
2021/09/03 01:25:07;;;;;;;27.85;16.58;;;18.10;99.90;;;18.43;70.36;102285.25;5112979;28;20044;-71
2021/09/03 01:27:35;;;;;;;23.83;17.17;;;18.10;99.90;;;18.27;70.36;102248.88;5113159;28;20430;-71
2021/09/03 01:30:05;;;;;;;28.38;18.60;;;18.10;99.90;;;18.38;70.60;102273.69;5112976;28;20391;-71
2021/09/03 01:32:33;;;;;;;26.83;17.40;;;18.10;99.90;;;18.41;70.39;102285.25;5113182;28;20047;-71
2021/09/03 01:35:01;;;;;;;27.73;17.63;;;18.00;99.90;;;18.38;70.57;102276.38;5113205;28;20043;-71
2021/09/03 01:37:30;;;;;;;25.35;17.08;;;18.00;99.90;;;18.38;70.59;102279.97;5113019;28;20052;-72
2021/09/03 01:40:00;;;;;;;26.20;17.35;;;18.00;99.90;;;18.33;70.83;102271.06;5112956;28;20051;-71
2021/09/03 01:42:29;;;;;;;31.23;17.48;;;18.00;99.90;;;18.28;71.20;102275.63;5095533;28;20047;-71
2021/09/03 01:44:57;;;;;;;30.23;17.58;;;18.00;99.90;;;18.27;71.16;102264.94;5113308;28;20502;-72
2021/09/03 01:47:25;;;;;;;29.08;18.70;;;17.90;99.90;;;18.24;71.17;102270.31;5113209;28;20047;-71
2021/09/03 01:49:54;;;;;;;30.92;18.02;;;17.90;99.90;;;18.22;71.37;102265.00;5095129;28;20074;-71
2021/09/03 01:52:23;;;;;;;29.45;17.67;;;17.90;99.90;;;18.22;71.40;102267.66;5113529;28;20127;-71
2021/09/03 01:54:51;;;;;;;30.95;17.65;;;17.90;99.90;;;18.21;71.36;102259.66;5113391;28;20073;-71
2021/09/03 01:57:21;;;;;;;26.92;17.75;;;17.90;99.90;;;18.19;71.49;102266.81;5095110;28;20584;-71
2021/09/03 01:59:50;;;;;;;27.00;18.00;;;17.90;99.90;;;18.27;71.46;102259.56;5112733;28;20085;-71
2021/09/03 02:02:18;;;;;;;26.98;17.45;;;17.90;99.90;;;18.27;71.24;102249.75;5113287;28;20707;-71
2021/09/03 02:04:47;;;;;;;25.75;16.85;;;17.90;99.90;;;18.25;71.28;102243.53;5113061;28;20044;-71
2021/09/03 02:07:15;;;;;;;27.92;17.52;;;17.90;99.90;;;18.23;71.38;102247.13;5113071;28;20040;-71
2021/09/03 02:09:43;;;;;;;28.35;17.80;;;17.80;99.90;;;18.21;71.32;102249.84;5113319;28;20043;-73
2021/09/03 02:12:12;;;;;;;29.05;18.23;;;17.90;99.90;;;18.23;71.42;102242.66;5113234;28;20449;-71
2021/09/03 02:14:43;;;;;;;26.40;17.85;;;17.90;99.90;;;18.21;71.48;102247.16;5112976;28;20112;-71
2021/09/03 02:17:12;;;;;;;29.25;17.60;;;17.80;99.90;;;18.19;71.46;102243.63;5113019;28;20097;-72
2021/09/03 02:19:40;;;;;;;28.40;18.63;;;17.80;99.90;;;18.23;71.33;102248.03;5112905;28;20123;-71
2021/09/03 02:22:09;;;;;;;26.30;18.27;;;17.80;99.90;;;18.25;71.24;102238.19;5113169;28;20039;-72
2021/09/03 02:24:37;;;;;;;28.63;18.10;;;17.90;99.90;;;18.26;71.10;102233.69;5112890;28;20131;-71
2021/09/03 02:27:05;;;;;;;26.30;17.30;;;17.90;99.90;;;18.25;71.21;102239.97;5112836;28;20463;-71
2021/09/03 02:29:34;;;;;;;27.77;17.83;;;17.90;99.90;;;18.19;71.23;102232.00;5112777;28;20126;-71
2021/09/03 02:32:05;;;;;;;27.25;17.88;;;17.80;99.90;;;18.20;71.23;102234.66;5112821;28;20036;-71
2021/09/03 02:34:34;;;;;;;30.05;18.02;;;17.90;99.90;;;18.18;71.35;102231.13;5094540;28;20466;-72
2021/09/03 02:37:02;;;;;;;26.05;16.92;;;17.90;99.90;;;18.15;71.54;102231.16;5094601;28;20081;-72
2021/09/03 02:39:31;;;;;;;28.00;17.80;;;17.80;99.90;;;18.14;71.58;102234.75;5112756;28;20401;-71
2021/09/03 02:41:59;;;;;;;28.13;17.52;;;17.80;99.90;;;18.10;71.72;102227.66;5112982;28;20044;-71
2021/09/03 02:44:27;;;;;;;26.45;18.35;;;17.80;99.90;;;18.12;71.78;102225.84;5113231;28;20073;-71
2021/09/03 02:46:56;;;;;;;26.30;18.55;;;17.70;99.90;;;18.13;71.77;102218.69;5112687;28;20122;-72
2021/09/03 02:49:25;;;;;;;25.88;18.77;;;17.70;99.90;;;18.08;71.56;102221.44;5113085;28;20040;-71
2021/09/03 02:51:54;;;;;;;26.70;17.67;;;17.80;99.90;;;18.01;71.80;102217.97;5112792;28;20089;-71
2021/09/03 02:54:22;;;;;;;31.33;18.13;;;17.70;99.90;;;18.03;71.89;102224.19;5112849;28;20067;-71
2021/09/03 02:56:50;;;;;;;33.67;18.65;;;17.70;99.90;;;18.04;71.84;102208.97;5113088;28;20139;-71
2021/09/03 02:59:19;;;;;;;27.15;17.92;;;17.70;99.90;;;18.03;71.79;102208.13;5112978;28;20075;-72
2021/09/03 03:01:48;;;;;;;26.70;19.33;;;17.70;99.90;;;17.97;72.02;102207.31;5112838;28;20047;-72
2021/09/03 03:04:16;;;;;;;28.45;18.50;;;17.60;99.90;;;17.97;72.15;102213.56;5112494;28;20047;-72
2021/09/03 03:06:46;;;;;;;29.35;19.20;;;17.60;99.90;;;17.88;72.08;102188.69;5112734;28;20075;-71
2021/09/03 03:09:14;;;;;;;29.57;17.43;;;17.70;99.90;;;17.98;72.04;102198.38;5112732;28;20480;-71
2021/09/03 03:11:43;;;;;;;27.95;17.83;;;17.60;99.90;;;17.93;72.17;102200.22;5095332;28;20067;-71
2021/09/03 03:14:15;;;;;;;27.58;17.45;;;17.60;99.90;;;17.95;72.21;102193.94;5116372;28;20042;-71
2021/09/03 03:16:44;;;;;;;27.05;17.85;;;17.60;99.90;;;17.96;72.37;102190.34;5116125;28;20044;-71
2021/09/03 03:19:13;;;;;;;28.05;18.65;;;17.60;99.90;;;17.99;72.07;102190.31;5115931;28;20126;-71
2021/09/03 03:21:41;;;;;;;31.20;19.38;;;17.60;99.90;;;18.01;71.91;102195.66;5115896;28;20040;-71
2021/09/03 03:24:11;;;;;;;28.98;20.05;;;17.60;99.90;;;18.00;72.21;102189.41;5116495;28;20094;-71
2021/09/03 03:26:39;;;;;;;30.60;20.33;;;17.60;99.90;;;17.91;71.99;102184.19;5116147;28;20105;-72
2021/09/03 03:29:08;;;;;;;28.67;18.75;;;17.60;99.90;;;17.90;72.30;102190.41;5115967;28;20122;-71
2021/09/03 03:31:36;;;;;;;31.63;19.60;;;17.60;99.90;;;17.91;72.34;102186.84;5115811;28;20067;-72
2021/09/03 03:34:04;;;;;;;33.70;18.52;;;17.60;99.90;;;17.97;72.36;102178.75;5115950;28;20070;-71
2021/09/03 03:36:33;;;;;;;33.15;19.65;;;17.60;99.90;;;17.91;72.52;102185.97;5115321;28;20079;-71
2021/09/03 03:39:01;;;;;;;35.13;20.10;;;17.60;99.90;;;18.00;72.23;102175.16;5115653;28;20471;-72
2021/09/03 03:41:31;;;;;;;32.22;20.38;;;17.60;99.90;;;17.94;72.36;102169.88;5116148;28;20052;-72
2021/09/03 03:43:59;;;;;;;31.42;20.15;;;17.60;99.90;;;17.96;72.34;102181.44;5115685;28;20043;-71
2021/09/03 03:46:28;;;;;;;27.85;19.73;;;17.60;99.90;;;17.94;72.31;102181.44;5115497;28;20048;-71
2021/09/03 03:48:57;;;;;;;29.00;18.85;;;17.60;99.90;;;17.90;72.39;102158.28;5115476;28;20551;-72
2021/09/03 03:51:25;;;;;;;29.30;18.67;;;17.60;99.90;;;17.93;72.32;102166.31;5097332;28;20564;-72
2021/09/03 03:53:54;;;;;;;28.63;19.58;;;17.60;99.90;;;17.91;72.58;102168.13;5115364;28;20119;-72
2021/09/03 03:56:22;;;;;;;31.20;20.58;;;17.60;99.90;;;17.89;72.54;102163.69;5115845;28;20051;-71
2021/09/03 03:58:52;;;;;;;31.80;20.17;;;17.50;99.90;;;17.95;72.45;102168.94;5115217;28;20565;-72
2021/09/03 04:01:20;;;;;;;29.75;19.58;;;17.60;99.90;;;17.93;72.38;102165.41;5115476;28;20144;-71
2021/09/03 04:03:49;;;;;;;32.80;20.70;;;17.60;99.90;;;17.95;72.40;102168.94;5115422;28;20044;-72
2021/09/03 04:06:17;;;;;;;31.73;20.67;;;17.60;99.90;;;17.91;72.68;102161.88;5097317;28;20484;-71
2021/09/03 04:08:46;;;;;;;32.58;21.33;;;17.60;99.90;;;17.92;72.83;102166.31;5096962;28;20040;-71
2021/09/03 04:11:14;;;;;;;33.65;20.60;;;17.60;99.90;;;17.92;72.59;102167.19;5115172;28;20063;-71
2021/09/03 04:13:43;;;;;;;31.60;20.10;;;17.60;99.90;;;17.88;72.63;102161.91;5114950;28;20399;-71
2021/09/03 04:16:13;;;;;;;32.60;21.15;;;17.60;99.90;;;17.76;72.47;102140.66;5115439;28;20040;-71
2021/09/03 04:18:41;;;;;;;35.30;21.52;;;17.60;99.90;;;17.84;72.75;102160.19;5114840;28;20039;-71
2021/09/03 04:21:09;;;;;;;30.95;20.55;;;17.50;99.90;;;17.85;72.73;102162.84;5115075;28;20130;-71
2021/09/03 04:23:38;;;;;;;35.47;20.77;;;17.50;99.90;;;17.84;72.54;102149.47;5114557;28;20458;-71
2021/09/03 04:26:06;;;;;;;32.85;21.25;;;17.50;99.90;;;17.86;72.60;102158.38;5115261;28;20057;-71
2021/09/03 04:28:35;;;;;;;35.03;21.83;;;17.50;99.90;;;17.89;72.60;102163.69;5114887;28;20415;-71
2021/09/03 04:31:03;;;;;;;31.10;21.02;;;17.50;99.90;;;17.44;72.78;102111.59;5114475;28;20035;-71
2021/09/03 04:33:33;;;;;;;31.27;21.63;;;17.50;99.90;;;17.80;72.88;102145.97;5115226;28;20042;-71
2021/09/03 04:36:01;;;;;;;31.93;20.67;;;17.50;99.90;;;17.81;72.73;102149.50;5114580;28;20475;-71
2021/09/03 04:38:30;;;;;;;36.38;21.73;;;17.50;99.90;;;17.79;72.65;102151.31;5114285;28;20116;-71
2021/09/03 04:40:59;;;;;;;37.60;23.13;;;17.50;99.90;;;17.31;72.64;102068.97;5096384;28;20052;-71
2021/09/03 04:43:27;;;;;;;32.00;20.98;;;17.50;99.90;;;17.84;72.92;102168.22;5114354;28;20118;-71
2021/09/03 04:45:56;;;;;;;36.17;22.67;;;17.50;99.90;;;17.81;72.99;102169.13;5114311;28;20454;-71
2021/09/03 04:48:24;;;;;;;31.35;21.40;;;17.40;99.90;;;17.84;73.01;102163.75;5114429;28;20409;-71
2021/09/03 04:50:54;;;;;;;33.85;22.05;;;17.50;99.90;;;17.79;73.16;102157.56;5114117;28;20097;-71
2021/09/03 04:53:27;;;;;;;34.35;21.85;;;17.40;99.90;;;17.78;72.92;102153.13;5114625;28;20054;-71
2021/09/03 04:55:56;;;;;;;36.40;22.80;;;17.50;99.90;;;17.65;73.14;102126.56;5114254;28;20039;-71
2021/09/03 04:58:24;;;;;;;37.28;21.70;;;17.50;99.90;;;17.80;73.01;102159.34;5114035;28;20500;-71
2021/09/03 05:00:52;;;;;;;41.78;23.88;;;17.40;99.90;;;17.74;73.40;102163.88;5113996;28;20043;-71
2021/09/03 05:03:21;;;;;;;33.63;21.95;;;17.40;99.90;;;17.75;73.48;102168.34;5114449;28;20048;-71
2021/09/03 05:05:49;;;;;;;32.33;22.10;;;17.40;99.90;;;17.77;73.55;102161.16;5114744;28;20063;-71
2021/09/03 05:08:19;;;;;;;37.33;23.48;;;17.40;99.90;;;17.79;73.56;102165.59;5114136;28;20096;-71
2021/09/03 05:10:47;;;;;;;32.42;21.98;;;17.40;99.90;;;17.82;73.58;102153.97;5114028;28;20439;-71
2021/09/03 05:13:16;;;;;;;40.20;23.17;;;17.50;99.90;;;17.78;73.56;102155.81;5113769;28;20078;-71
2021/09/03 05:15:45;;;;;;;38.08;23.90;;;17.50;99.90;;;17.77;73.43;102154.03;5113741;28;20138;-71
2021/09/03 05:18:13;;;;;;;35.97;22.80;;;17.50;99.90;;;17.81;73.51;102146.81;5113653;28;20040;-72
2021/09/03 05:20:42;;;;;;;34.72;23.13;;;17.40;99.90;;;17.79;73.84;102152.22;5113931;28;20122;-71
2021/09/03 05:23:10;;;;;;;38.88;23.35;;;17.50;99.90;;;17.84;73.86;102149.47;5113616;28;20047;-71
2021/09/03 05:25:40;;;;;;;31.48;21.67;;;17.50;99.90;;;17.85;73.85;102154.81;5113469;28;20032;-71
2021/09/03 05:28:08;;;;;;;34.60;23.10;;;17.50;99.90;;;17.84;74.07;102155.72;5113546;28;20493;-72
2021/09/03 05:30:37;;;;;;;37.92;23.50;;;17.50;99.90;;;17.83;74.09;102151.25;5113392;28;20050;-72
2021/09/03 05:33:08;;;;;;;33.35;22.95;;;17.50;99.90;;;17.92;74.00;102158.31;5113650;28;20048;-72
2021/09/03 05:35:36;;;;;;;35.47;23.92;;;17.60;99.90;;;17.95;73.86;102156.47;5112905;28;20070;-72
2021/09/03 05:38:05;;;;;;;36.47;23.88;;;17.60;99.90;;;17.80;74.04;102129.91;5113105;28;20476;-72
2021/09/03 05:40:33;;;;;;;41.10;24.73;;;17.60;99.90;;;17.87;73.92;102136.03;5113381;28;20441;-72
2021/09/03 05:43:04;;;;;;;39.75;23.60;;;17.70;99.90;;;18.03;73.99;102164.38;5112824;28;20043;-72
2021/09/03 05:45:33;;;;;;;;;;;17.70;99.90;;;16.33;73.66;101865.28;5113034;28;20394;-71
2021/09/03 05:48:02;;;;;;;37.35;24.30;;;17.80;99.90;;;18.12;73.89;102168.72;5094323;28;19926;-72
2021/09/03 05:50:31;;;;;;;39.25;23.98;;;17.80;99.90;;;18.18;73.78;102163.25;5112664;28;20043;-72
2021/09/03 05:52:59;;;;;;;36.90;23.65;;;17.80;99.90;;;18.23;73.60;102169.44;5112435;28;20039;-72
2021/09/03 05:55:28;;;;;;;44.47;24.20;;;17.90;99.90;;;18.23;73.49;102145.34;5112320;28;20057;-72
2021/09/03 05:57:58;;;;;;;39.33;23.90;;;18.00;99.90;;;18.44;73.33;102171.81;5112255;28;20059;-72
2021/09/03 06:00:28;;;;;;;38.83;24.30;;;18.10;99.90;;;18.64;72.71;102170.56;5112432;28;20051;-72
2021/09/03 06:02:57;;;;;;;38.03;24.23;;;18.30;99.90;;;18.76;72.37;102169.47;5112462;28;20135;-73
2021/09/03 06:05:26;;;;;;;40.08;25.05;;;18.40;99.90;;;18.87;71.92;102165.69;5112276;28;20483;-72
2021/09/03 06:07:55;;;;;;;37.47;23.23;;;18.50;99.90;;;19.04;71.36;102164.53;5094447;28;20039;-72
2021/09/03 06:10:23;;;;;;;35.85;23.73;;;18.70;99.90;;;19.11;71.18;102164.38;5112609;28;20047;-72
2021/09/03 06:12:52;;;;;;;38.63;24.38;;;18.70;99.90;;;19.24;70.58;102162.38;5112682;28;20051;-72
2021/09/03 06:15:21;;;;;;;37.28;24.25;;;18.90;99.90;;;19.39;70.17;102164.78;5112929;28;20047;-72
2021/09/03 06:17:51;;;;;;;32.75;23.95;;;19.00;99.90;;;19.52;69.87;102158.22;5112352;28;20115;-73
2021/09/03 06:20:20;;;;;;;33.85;22.50;;;19.10;99.90;;;19.59;69.54;102157.19;5112450;28;20058;-72
2021/09/03 06:22:48;;;;;;;37.40;22.83;;;19.20;99.90;;;19.72;69.19;102159.56;5094268;28;20052;-72
2021/09/03 06:25:17;;;;;;;36.85;24.38;;;19.30;99.90;;;19.68;68.89;102140.91;5112259;28;20047;-72
2021/09/03 06:27:45;;;;;;;33.55;22.23;;;19.50;99.90;;;19.93;68.18;102158.25;5112331;28;20440;-72
2021/09/03 06:30:14;;;;;;;34.65;24.20;;;19.60;99.90;;;20.04;68.11;102169.63;5112105;28;20557;-72
2021/09/03 06:32:43;;;;;;;38.95;23.02;;;19.60;99.90;;;20.14;67.51;102173.88;5112010;28;20135;-73
2021/09/03 06:35:13;;;;;;;36.15;23.70;;;19.80;99.90;;;20.18;67.20;102164.84;5111826;28;20052;-73
2021/09/03 06:37:43;;;;;;;35.22;23.33;;;19.90;99.90;;;20.31;66.97;102174.38;5112201;28;20071;-73
2021/09/03 06:40:12;;;;;;;34.22;23.63;;;20.00;99.90;;;20.24;66.65;102139.63;5112305;28;20039;-73
2021/09/03 06:42:40;;;;;;;34.88;22.85;;;20.10;99.90;;;20.45;65.88;102172.28;5112114;28;20075;-74
2021/09/03 06:45:11;;;;;;;33.58;22.75;;;20.20;99.90;;;20.48;66.07;102171.28;5112204;28;20508;-73
2021/09/03 06:47:39;;;;;;;35.17;22.27;;;20.20;99.90;;;20.59;66.05;102170.13;5115912;28;20044;-73
2021/09/03 06:50:10;;;;;;;45.92;23.35;;;20.30;99.90;;;20.70;65.73;102180.59;5115894;28;20071;-72
2021/09/03 06:52:40;;;;;;;36.20;22.73;;;20.40;99.90;;;20.69;65.57;102174.34;5115771;28;20043;-72
2021/09/03 06:55:10;;;;;;;32.93;22.43;;;20.40;99.90;;;20.81;65.43;102175.81;5115652;28;20052;-72
2021/09/03 06:57:39;;;;;;;35.17;23.40;;;20.50;99.90;;;21.03;64.93;102176.19;5115982;28;20069;-73
2021/09/03 07:00:09;;;;;;;37.78;24.23;;;20.70;99.90;;;21.14;64.49;102172.28;5116075;28;20063;-72
2021/09/03 07:02:38;;;;;;;35.15;23.55;;;20.80;99.90;;;21.06;63.92;102174.28;5097773;28;20047;-72
2021/09/03 07:05:09;;;;;;;37.25;25.25;;;20.80;99.90;;;21.09;64.85;102170.66;5116398;28;20503;-72
2021/09/03 07:07:39;;;;;;;34.13;22.60;;;20.80;99.90;;;21.19;64.98;102172.16;5116092;28;20044;-73
2021/09/03 07:10:10;;;;;;;32.25;23.25;;;20.90;99.90;;;21.05;64.59;102168.97;5116129;28;20043;-67
2021/09/03 07:12:42;;;;;;;37.97;22.15;;;20.80;99.90;;;21.17;64.58;102171.31;5116109;28;20048;-65
2021/09/03 07:15:11;;;;;;;31.52;22.08;;;20.80;99.90;;;21.24;64.26;102164.84;5115785;28;20077;-65
2021/09/03 07:17:40;;;;;;;31.90;21.52;;;20.90;99.90;;;21.34;64.42;102158.28;5115694;28;20047;-66
2021/09/03 07:20:11;;;;;;;28.95;21.13;;;21.00;99.90;;;21.58;63.98;102164.78;5097549;28;20457;-67
2021/09/03 07:22:50;;;;;;;35.10;21.95;;;21.20;99.90;;;21.43;63.66;102158.91;5115477;28;20506;-67
2021/09/03 07:25:19;;;;;;;36.83;22.52;;;21.10;99.90;;;21.49;63.47;102160.53;5097172;28;20480;-66
2021/09/03 07:27:47;;;;;;;28.30;20.60;;;21.20;99.90;;;21.48;63.58;102161.47;5115230;28;20070;-65
2021/09/03 07:30:15;;;;;;;29.83;21.75;;;21.20;99.90;;;21.56;63.05;102162.13;5115135;28;20100;-65
2021/09/03 07:32:44;;;;;;;28.88;20.85;;;21.20;99.90;;;21.72;63.06;102174.22;5115033;28;20449;-66
2021/09/03 07:35:13;;;;;;;35.03;21.02;;;21.40;99.90;;;21.56;63.06;102159.44;5115513;28;20044;-64
2021/09/03 07:37:43;;;;;;;34.67;21.25;;;21.30;99.90;;;21.42;63.55;102161.63;5114827;28;20101;-66
2021/09/03 07:40:16;;;;;;;31.20;21.73;;;21.20;99.90;;;20.99;64.67;102167.28;5097037;28;20567;-68
2021/09/03 07:42:45;;;;;;;33.25;22.00;;;20.80;99.90;;;21.07;64.43;102146.47;5114846;28;20050;-70
2021/09/03 07:45:14;;;;;;;31.17;22.80;;;20.80;99.90;;;21.05;64.32;102137.56;5115103;28;20044;-71
2021/09/03 07:47:42;;;;;;;29.90;21.10;;;20.90;99.90;;;21.16;63.80;102148.00;5114867;28;20239;-71
2021/09/03 07:50:17;;;;;;;30.10;21.45;;;20.90;99.90;;;21.55;64.03;102149.56;5115029;28;20050;-71
2021/09/03 07:52:47;;;;;;;28.17;20.58;;;21.20;99.90;;;21.65;63.85;102156.47;5114684;28;20040;-71
2021/09/03 07:55:36;;;;;;;26.00;20.07;;;21.30;99.90;;;21.83;63.42;102153.28;5115183;28;20071;-71
2021/09/03 07:58:05;;;;;;;31.30;21.05;;;21.50;99.90;;;21.35;63.62;102120.53;5114107;28;20059;-71
2021/09/03 08:00:35;;;;;;;27.85;19.85;;;21.40;99.90;;;21.21;64.31;102140.72;5114556;28;20039;-73
2021/09/03 08:03:04;;;;;;;28.83;19.42;;;21.10;99.90;;;21.51;64.57;102151.47;5114559;28;20124;-71
2021/09/03 08:05:33;;;;;;;32.22;20.52;;;21.20;99.90;;;21.84;63.46;102154.13;5114733;28;20102;-71
2021/09/03 08:08:05;;;;;;;30.50;19.50;;;21.50;99.90;;;21.70;63.41;102142.88;5114511;28;20196;-72
2021/09/03 08:10:35;;;;;;;32.63;19.65;;;21.40;99.90;;;21.63;62.71;102103.56;5114464;28;20061;-71
2021/09/03 08:13:05;;;;;;;26.50;19.10;;;21.60;99.90;;;21.90;62.81;102138.66;5114675;28;20389;-71
2021/09/03 08:15:34;;;;;;;32.55;20.70;;;21.60;99.90;;;21.36;65.33;102142.97;5114979;28;20118;-71
2021/09/03 08:18:03;;;;;;;29.38;19.92;;;21.20;99.90;;;21.12;64.89;102132.88;5114381;28;20055;-71
2021/09/03 08:20:32;;;;;;;26.83;18.30;;;21.00;99.90;;;21.76;64.58;102139.97;5114263;28;20400;-72
2021/09/03 08:23:03;;;;;;;26.63;20.15;;;21.30;99.90;;;22.05;63.39;102150.78;5114739;28;20051;-72
2021/09/03 08:25:31;;;;;;;32.08;21.33;;;21.70;99.90;;;22.42;61.58;102152.25;5114444;28;20048;-72
2021/09/03 08:28:00;;;;;;;27.35;18.88;;;22.10;99.90;;;22.42;62.51;102149.56;5113962;28;20480;-72
2021/09/03 08:30:29;;;;;;;26.65;19.27;;;22.10;99.90;;;22.82;61.28;102150.97;5114187;28;20036;-72
2021/09/03 08:32:58;;;;;;;25.17;18.88;;;22.40;99.90;;;22.33;61.14;102128.28;5113921;28;20118;-72
2021/09/03 08:35:26;;;;;;;29.77;19.20;;;22.30;99.90;;;21.61;64.13;102154.78;5095776;28;20074;-72
2021/09/03 08:37:55;;;;;;;27.48;18.15;;;21.60;99.90;;;22.06;63.44;102158.84;5113811;28;20130;-71
2021/09/03 08:40:24;;;;;;;22.65;17.70;;;21.70;99.90;;;22.61;63.22;102160.63;5113685;28;20067;-71
2021/09/03 08:42:53;;;;;;;26.55;18.13;;;22.10;99.90;;;22.88;61.60;102164.25;5113821;28;20059;-71
2021/09/03 08:45:21;;;;;;;26.60;18.55;;;22.50;99.90;;;23.04;60.50;102154.66;5113791;28;20067;-72
2021/09/03 08:47:50;;;;;;;28.42;18.23;;;22.80;99.90;;;22.39;60.87;102138.88;5113514;28;20040;-71
2021/09/03 08:50:20;;;;;;;25.17;17.60;;;22.60;99.90;;;22.09;62.58;102163.22;5113494;28;20035;-71
2021/09/03 08:52:52;;;;;;;25.33;18.75;;;21.90;99.90;;;20.71;66.07;102150.13;5113515;28;20067;-72
2021/09/03 08:55:21;;;;;;;26.23;18.83;;;20.80;99.90;;;21.49;65.82;102156.03;5113723;28;20039;-71
2021/09/03 08:57:51;;;;;;;25.02;19.42;;;21.00;99.90;;;21.69;64.65;102149.19;5113279;28;20437;-72
2021/09/03 09:00:27;;;;;;;30.17;19.57;;;21.30;99.90;;;21.91;64.00;102151.19;5113162;28;20048;-72
2021/09/03 09:03:03;;;;;;;27.65;18.95;;;21.50;99.90;;;22.30;62.87;102141.84;5113399;28;20286;-72
2021/09/03 09:05:56;;;;;;;26.33;18.05;;;21.90;99.90;;;22.75;61.62;102152.06;5113529;28;20047;-71
2021/09/03 09:08:29;;;;;;;23.27;18.13;;;22.40;99.90;;;22.45;63.38;102151.28;5113683;28;20035;-72
2021/09/03 09:10:59;;;;;;;22.05;16.35;;;22.10;99.90;;;23.06;61.07;102156.38;5113270;28;20123;-71
2021/09/03 09:13:31;;;;;;;;;;;22.60;99.90;;;23.29;60.19;102153.72;5113504;28;20073;-71
2021/09/03 09:16:08;;;;;;;22.77;16.70;;;23.00;99.90;;;23.15;60.13;102163.28;5113411;28;19942;-72
2021/09/03 09:18:46;;;;;;;23.27;17.10;;;23.00;99.90;;;22.14;62.68;102123.53;5113166;28;20126;-71
2021/09/03 09:21:23;;;;;;;24.45;16.85;;;22.10;99.90;;;22.63;61.64;102149.81;5113461;28;20039;-71
2021/09/03 09:23:56;;;;;;;26.92;16.60;;;22.20;99.90;;;23.06;60.90;102150.06;5113323;28;20487;-72
2021/09/03 09:26:28;;;;;;;25.20;17.40;;;22.60;99.90;;;22.89;61.38;102153.38;5113069;28;20055;-71
2021/09/03 09:28:57;;;;;;;24.85;16.67;;;22.60;99.90;;;23.07;61.65;102160.81;5112996;28;20067;-71
2021/09/03 09:31:32;;;;;;;21.20;16.02;;;22.60;99.90;;;23.15;61.45;102161.44;5112943;28;20053;-71
2021/09/03 09:34:12;;;;;;;22.60;15.80;;;22.80;99.90;;;23.79;60.08;102159.97;5112883;28;20101;-71
2021/09/03 09:36:42;;;;;;;23.00;15.33;;;23.30;99.90;;;23.97;57.97;102159.25;5113124;28;20047;-71
2021/09/03 09:39:12;;;;;;;25.85;16.92;;;23.70;99.90;;;24.40;57.39;102165.69;5113402;28;20128;-71
2021/09/03 09:41:40;;;;;;;26.42;14.95;;;24.10;99.90;;;24.76;55.75;102170.47;5113305;28;20549;-71
2021/09/03 09:44:10;;;;;;;27.65;15.77;;;24.40;99.90;;;23.92;58.09;102157.69;5113441;28;20127;-71
2021/09/03 09:46:39;;;;;;;25.13;16.35;;;23.70;99.90;;;23.65;58.33;102159.63;5113234;28;20036;-71
2021/09/03 09:49:16;;;;;;;21.98;16.63;;;23.50;99.90;;;23.80;57.73;102159.03;5113355;28;20100;-71
2021/09/03 09:51:49;;;;;;;24.17;16.75;;;23.60;99.90;;;23.69;58.92;102147.72;5113265;28;20477;-71
2021/09/03 09:54:22;;;;;;;21.33;15.60;;;23.40;99.90;;;24.05;58.15;102156.28;5113399;28;20074;-71
2021/09/03 09:56:54;;;;;;;25.98;18.15;;;23.70;99.90;;;23.19;60.16;102136.09;5094967;28;20043;-72
2021/09/03 09:59:25;;;;;;;22.92;16.90;;;23.00;99.90;;;23.90;58.61;102151.44;5113688;28;20052;-71
2021/09/03 10:01:56;;;;;;;24.05;16.92;;;23.40;99.90;;;24.34;57.08;102157.81;5113398;28;20438;-70
2021/09/03 10:04:27;;;;;;;23.05;16.40;;;23.90;99.90;;;24.21;56.88;102129.50;5094912;28;20054;-71
2021/09/03 10:06:59;;;;;;;25.95;18.52;;;24.00;99.90;;;22.68;60.07;102120.84;5113610;28;20092;-71
2021/09/03 10:09:32;;;;;;;27.40;18.63;;;22.80;99.90;;;22.88;61.86;102145.34;5113307;28;20082;-71